sensor_id;sensor_type;location;lat;lon;timestamp;pressure;altitude;pressure_sealevel;temperature;humidity
60089;BME280;45961;53.574;55.878;2023-02-10T00:01:05;101304.13;;;-8.29;80.99
60089;BME280;45961;53.574;55.878;2023-02-10T00:02:06;101309.78;;;-8.23;80.93
60089;BME280;45961;53.574;55.878;2023-02-10T00:03:07;101314.16;;;-8.29;80.86
60089;BME280;45961;53.574;55.878;2023-02-10T00:04:11;101313.59;;;-8.27;80.72
60089;BME280;45961;53.574;55.878;2023-02-10T00:05:12;101316.09;;;-8.27;80.72
60089;BME280;45961;53.574;55.878;2023-02-10T00:06:14;101316.84;;;-8.28;80.63
60089;BME280;45961;53.574;55.878;2023-02-10T00:07:16;101306.81;;;-8.28;80.64
60089;BME280;45961;53.574;55.878;2023-02-10T00:08:17;101326.91;;;-8.28;80.76
60089;BME280;45961;53.574;55.878;2023-02-10T00:09:18;101310.19;;;-8.27;80.59
60089;BME280;45961;53.574;55.878;2023-02-10T00:10:19;101304.72;;;-8.32;80.61
60089;BME280;45961;53.574;55.878;2023-02-10T00:11:20;101312.81;;;-8.34;80.63
60089;BME280;45961;53.574;55.878;2023-02-10T00:12:41;101304.53;;;-8.33;80.65
60089;BME280;45961;53.574;55.878;2023-02-10T00:13:43;101297.31;;;-8.30;80.61
60089;BME280;45961;53.574;55.878;2023-02-10T00:14:44;101289.66;;;-8.32;80.62
60089;BME280;45961;53.574;55.878;2023-02-10T00:15:45;101301.88;;;-8.35;80.73
60089;BME280;45961;53.574;55.878;2023-02-10T00:16:49;101296.25;;;-8.32;80.62
60089;BME280;45961;53.574;55.878;2023-02-10T00:17:51;101295.38;;;-8.33;80.61
60089;BME280;45961;53.574;55.878;2023-02-10T00:18:52;101295.56;;;-8.31;80.71
60089;BME280;45961;53.574;55.878;2023-02-10T00:19:53;101300.13;;;-8.36;80.65
60089;BME280;45961;53.574;55.878;2023-02-10T00:20:54;101287.28;;;-8.39;80.74
60089;BME280;45961;53.574;55.878;2023-02-10T00:21:55;101290.53;;;-8.31;80.60
60089;BME280;45961;53.574;55.878;2023-02-10T00:22:55;101288.19;;;-8.21;80.62
60089;BME280;45961;53.574;55.878;2023-02-10T00:23:56;101290.81;;;-8.28;80.66
60089;BME280;45961;53.574;55.878;2023-02-10T00:24:57;101289.06;;;-8.29;80.53
60089;BME280;45961;53.574;55.878;2023-02-10T00:26:05;101286.53;;;-8.29;80.51
60089;BME280;45961;53.574;55.878;2023-02-10T00:27:06;101289.94;;;-8.29;80.61
60089;BME280;45961;53.574;55.878;2023-02-10T00:28:08;101287.41;;;-8.29;80.51
60089;BME280;45961;53.574;55.878;2023-02-10T00:29:09;101280.91;;;-8.35;80.49
60089;BME280;45961;53.574;55.878;2023-02-10T00:30:10;101282.41;;;-8.37;80.40
60089;BME280;45961;53.574;55.878;2023-02-10T00:31:14;101284.63;;;-8.32;80.79
60089;BME280;45961;53.574;55.878;2023-02-10T00:32:20;101286.53;;;-8.29;80.38
60089;BME280;45961;53.574;55.878;2023-02-10T00:33:21;101284.63;;;-8.32;80.26
60089;BME280;45961;53.574;55.878;2023-02-10T00:34:22;101280.63;;;-8.38;80.42
60089;BME280;45961;53.574;55.878;2023-02-10T00:35:23;101277.66;;;-8.34;80.33
60089;BME280;45961;53.574;55.878;2023-02-10T00:36:24;101285.06;;;-8.36;80.26
60089;BME280;45961;53.574;55.878;2023-02-10T00:37:25;101279.56;;;-8.40;80.25
60089;BME280;45961;53.574;55.878;2023-02-10T00:38:26;101272.00;;;-8.49;80.36
60089;BME280;45961;53.574;55.878;2023-02-10T00:39:27;101272.75;;;-8.50;80.32
60089;BME280;45961;53.574;55.878;2023-02-10T00:40:28;101275.25;;;-8.50;80.36
60089;BME280;45961;53.574;55.878;2023-02-10T00:41:32;101279.72;;;-8.48;80.50
60089;BME280;45961;53.574;55.878;2023-02-10T00:42:33;101282.38;;;-8.46;80.47
60089;BME280;45961;53.574;55.878;2023-02-10T00:43:37;101280.19;;;-8.43;80.47
60089;BME280;45961;53.574;55.878;2023-02-10T00:44:43;101291.38;;;-8.48;80.31
60089;BME280;45961;53.574;55.878;2023-02-10T00:45:44;101284.09;;;-8.54;80.32
60089;BME280;45961;53.574;55.878;2023-02-10T00:46:44;101281.03;;;-8.51;80.23
60089;BME280;45961;53.574;55.878;2023-02-10T00:47:45;101275.25;;;-8.50;80.30
60089;BME280;45961;53.574;55.878;2023-02-10T00:48:48;101282.81;;;-8.41;80.29
60089;BME280;45961;53.574;55.878;2023-02-10T00:49:49;101281.16;;;-8.50;80.06
60089;BME280;45961;53.574;55.878;2023-02-10T00:50:50;101275.25;;;-8.50;80.16
60089;BME280;45961;53.574;55.878;2023-02-10T00:51:51;101267.16;;;-8.48;80.25
60089;BME280;45961;53.574;55.878;2023-02-10T00:52:52;101262.28;;;-8.46;80.11
60089;BME280;45961;53.574;55.878;2023-02-10T00:53:53;101267.16;;;-8.48;80.29
60089;BME280;45961;53.574;55.878;2023-02-10T00:54:54;101269.69;;;-8.48;80.21
60089;BME280;45961;53.574;55.878;2023-02-10T00:55:55;101270.38;;;-8.49;80.33
60089;BME280;45961;53.574;55.878;2023-02-10T00:56:57;101274.69;;;-8.48;80.25
60089;BME280;45961;53.574;55.878;2023-02-10T00:57:58;101270.97;;;-8.51;80.05
60089;BME280;45961;53.574;55.878;2023-02-10T00:58:59;101270.59;;;-8.38;80.35
60089;BME280;45961;53.574;55.878;2023-02-10T01:00:00;101277.38;;;-8.37;80.13
60089;BME280;45961;53.574;55.878;2023-02-10T01:01:02;101276.03;;;-8.42;80.26
60089;BME280;45961;53.574;55.878;2023-02-10T01:02:02;101271.44;;;-8.47;80.14
60089;BME280;45961;53.574;55.878;2023-02-10T01:03:03;101267.88;;;-8.49;80.19
60089;BME280;45961;53.574;55.878;2023-02-10T01:04:04;101278.50;;;-8.51;80.15
60089;BME280;45961;53.574;55.878;2023-02-10T01:05:06;101277.91;;;-8.49;80.18
60089;BME280;45961;53.574;55.878;2023-02-10T01:06:07;101261.66;;;-8.52;80.32
60089;BME280;45961;53.574;55.878;2023-02-10T01:07:09;101270.59;;;-8.38;80.31
60089;BME280;45961;53.574;55.878;2023-02-10T01:08:10;101264.94;;;-8.45;80.20
60089;BME280;45961;53.574;55.878;2023-02-10T01:09:11;101267.31;;;-8.46;80.10
60089;BME280;45961;53.574;55.878;2023-02-10T01:10:12;101266.28;;;-8.48;80.17
60089;BME280;45961;53.574;55.878;2023-02-10T01:11:14;101267.75;;;-8.41;80.23
60089;BME280;45961;53.574;55.878;2023-02-10T01:12:15;101274.88;;;-8.37;80.13
60089;BME280;45961;53.574;55.878;2023-02-10T01:13:16;101266.84;;;-8.51;80.08
60089;BME280;45961;53.574;55.878;2023-02-10T01:14:17;101267.00;;;-8.49;80.12
60089;BME280;45961;53.574;55.878;2023-02-10T01:15:18;101270.97;;;-8.51;80.07
60089;BME280;45961;53.574;55.878;2023-02-10T01:16:19;101270.97;;;-8.51;80.16
60089;BME280;45961;53.574;55.878;2023-02-10T01:17:21;101272.44;;;-8.53;80.18
60089;BME280;45961;53.574;55.878;2023-02-10T01:18:22;101269.19;;;-8.52;80.15
60089;BME280;45961;53.574;55.878;2023-02-10T01:19:23;101262.56;;;-8.52;80.18
60089;BME280;45961;53.574;55.878;2023-02-10T01:20:24;101256.94;;;-8.49;80.23
60089;BME280;45961;53.574;55.878;2023-02-10T01:21:25;101268.06;;;-8.47;80.16
60089;BME280;45961;53.574;55.878;2023-02-10T01:22:26;101269.50;;;-8.49;80.15
60089;BME280;45961;53.574;55.878;2023-02-10T01:23:27;101267.59;;;-8.52;80.04
60089;BME280;45961;53.574;55.878;2023-02-10T01:24:28;101275.13;;;-8.52;80.12
60089;BME280;45961;53.574;55.878;2023-02-10T01:25:32;101267.09;;;-8.56;80.03
60089;BME280;45961;53.574;55.878;2023-02-10T01:26:34;101278.75;;;-8.57;80.25
60089;BME280;45961;53.574;55.878;2023-02-10T01:27:35;101274.16;;;-8.61;80.23
60089;BME280;45961;53.574;55.878;2023-02-10T01:28:37;101274.91;;;-8.62;80.20
60089;BME280;45961;53.574;55.878;2023-02-10T01:29:39;101269.88;;;-8.62;80.34
60089;BME280;45961;53.574;55.878;2023-02-10T01:30:40;101272.25;;;-8.63;80.37
60089;BME280;45961;53.574;55.878;2023-02-10T01:31:41;101265.59;;;-8.63;80.43
60089;BME280;45961;53.574;55.878;2023-02-10T01:32:42;101262.50;;;-8.60;80.28
60089;BME280;45961;53.574;55.878;2023-02-10T01:33:43;101266.81;;;-8.59;80.35
60089;BME280;45961;53.574;55.878;2023-02-10T01:34:44;101259.44;;;-8.58;80.37
60089;BME280;45961;53.574;55.878;2023-02-10T01:35:45;101257.81;;;-8.57;80.28
60089;BME280;45961;53.574;55.878;2023-02-10T01:36:48;101267.72;;;-8.50;80.27
60089;BME280;45961;53.574;55.878;2023-02-10T01:37:49;101250.72;;;-8.53;80.15
60089;BME280;45961;53.574;55.878;2023-02-10T01:38:50;101260.78;;;-8.53;80.10
60089;BME280;45961;53.574;55.878;2023-02-10T01:39:51;101261.19;;;-8.57;80.02
60089;BME280;45961;53.574;55.878;2023-02-10T01:40:52;101261.06;;;-8.58;80.16
60089;BME280;45961;53.574;55.878;2023-02-10T01:41:54;101258.41;;;-8.60;80.12
60089;BME280;45961;53.574;55.878;2023-02-10T01:42:57;101253.38;;;-8.60;80.20
60089;BME280;45961;53.574;55.878;2023-02-10T01:44:55;101249.38;;;-8.58;80.33
60089;BME280;45961;53.574;55.878;2023-02-10T01:45:32;101250.69;;;-8.61;80.39
60089;BME280;45961;53.574;55.878;2023-02-10T01:46:35;101244.22;;;-8.59;80.40
60089;BME280;45961;53.574;55.878;2023-02-10T01:47:37;101251.91;;;-8.58;80.39
60089;BME280;45961;53.574;55.878;2023-02-10T01:48:38;101247.63;;;-8.59;80.45
60089;BME280;45961;53.574;55.878;2023-02-10T01:49:42;101241.44;;;-8.54;80.60
60089;BME280;45961;53.574;55.878;2023-02-10T01:50:50;101241.00;;;-8.50;80.48
60089;BME280;45961;53.574;55.878;2023-02-10T01:51:55;101230.50;;;-8.54;80.44
60089;BME280;45961;53.574;55.878;2023-02-10T01:52:59;101239.56;;;-8.48;80.44
60089;BME280;45961;53.574;55.878;2023-02-10T01:54:00;101230.84;;;-8.42;80.56
60089;BME280;45961;53.574;55.878;2023-02-10T01:55:10;101227.47;;;-8.43;80.35
60089;BME280;45961;53.574;55.878;2023-02-10T01:56:13;101233.38;;;-8.42;80.30
60089;BME280;45961;53.574;55.878;2023-02-10T01:57:16;101222.75;;;-8.40;80.35
60089;BME280;45961;53.574;55.878;2023-02-10T01:58:20;101229.69;;;-8.37;80.32
60089;BME280;45961;53.574;55.878;2023-02-10T01:59:24;101222.44;;;-8.43;80.16
60089;BME280;45961;53.574;55.878;2023-02-10T02:00:26;101240.16;;;-8.41;80.03
60089;BME280;45961;53.574;55.878;2023-02-10T02:01:27;101239.56;;;-8.48;80.18
60089;BME280;45961;53.574;55.878;2023-02-10T02:02:29;101230.97;;;-8.50;80.19
60089;BME280;45961;53.574;55.878;2023-02-10T02:03:30;101232.59;;;-8.50;80.32
60089;BME280;45961;53.574;55.878;2023-02-10T02:04:31;101233.78;;;-8.47;80.53
60089;BME280;45961;53.574;55.878;2023-02-10T02:05:37;101227.13;;;-8.55;80.28
60089;BME280;45961;53.574;55.878;2023-02-10T02:06:39;101229.00;;;-8.61;80.33
60089;BME280;45961;53.574;55.878;2023-02-10T02:07:43;101234.75;;;-8.62;80.41
60089;BME280;45961;53.574;55.878;2023-02-10T02:08:48;101228.72;;;-8.64;80.49
60089;BME280;45961;53.574;55.878;2023-02-10T02:09:49;101230.91;;;-8.67;80.59
60089;BME280;45961;53.574;55.878;2023-02-10T02:11:12;101228.84;;;-8.62;80.63
60089;BME280;45961;53.574;55.878;2023-02-10T02:12:41;101227.66;;;-8.66;80.74
60089;BME280;45961;53.574;55.878;2023-02-10T02:15:23;101230.06;;;-8.59;80.72
60089;BME280;45961;53.574;55.878;2023-02-10T02:18:08;101219.34;;;-8.74;80.54
60089;BME280;45961;53.574;55.878;2023-02-10T02:24:01;101243.41;;;-8.76;81.03
60089;BME280;45961;53.574;55.878;2023-02-10T02:30:25;101235.59;;;-8.70;81.20
60089;BME280;45961;53.574;55.878;2023-02-10T02:33:10;101232.22;;;-8.71;81.33
60089;BME280;45961;53.574;55.878;2023-02-10T02:34:39;101231.00;;;-8.74;81.25
60089;BME280;45961;53.574;55.878;2023-02-10T02:35:52;101221.41;;;-8.78;81.35
60089;BME280;45961;53.574;55.878;2023-02-10T02:37:01;101217.56;;;-8.75;81.35
60089;BME280;45961;53.574;55.878;2023-02-10T02:38:03;101219.09;;;-8.68;81.34
60089;BME280;45961;53.574;55.878;2023-02-10T02:39:04;101220.22;;;-8.73;81.45
60089;BME280;45961;53.574;55.878;2023-02-10T02:40:09;101225.44;;;-8.72;81.36
60089;BME280;45961;53.574;55.878;2023-02-10T02:41:10;101216.84;;;-8.74;81.34
60089;BME280;45961;53.574;55.878;2023-02-10T02:42:23;101221.59;;;-8.68;81.40
60089;BME280;45961;53.574;55.878;2023-02-10T02:43:25;101217.63;;;-8.66;81.36
60089;BME280;45961;53.574;55.878;2023-02-10T02:44:26;101220.25;;;-8.64;81.29
60089;BME280;45961;53.574;55.878;2023-02-10T02:47:00;101214.34;;;-8.65;81.06
60089;BME280;45961;53.574;55.878;2023-02-10T02:49:21;101216.09;;;-8.73;80.84
60089;BME280;45961;53.574;55.878;2023-02-10T02:50:33;101202.84;;;-8.72;80.73
60089;BME280;45961;53.574;55.878;2023-02-10T02:51:50;101212.88;;;-8.72;80.67
60089;BME280;45961;53.574;55.878;2023-02-10T02:54:29;101199.69;;;-8.78;80.81
60089;BME280;45961;53.574;55.878;2023-02-10T02:57:50;101202.38;;;-8.76;80.74
60089;BME280;45961;53.574;55.878;2023-02-10T02:58:58;101196.31;;;-8.78;80.60
60089;BME280;45961;53.574;55.878;2023-02-10T03:00:09;101201.78;;;-8.74;80.61
60089;BME280;45961;53.574;55.878;2023-02-10T03:02:00;101200.75;;;-8.76;80.46
60089;BME280;45961;53.574;55.878;2023-02-10T03:02:41;101190.06;;;-8.90;80.74
60089;BME280;45961;53.574;55.878;2023-02-10T03:03:43;101184.75;;;-8.85;80.74
60089;BME280;45961;53.574;55.878;2023-02-10T03:04:45;101199.25;;;-8.82;80.78
60089;BME280;45961;53.574;55.878;2023-02-10T03:05:46;101200.81;;;-8.91;80.60
60089;BME280;45961;53.574;55.878;2023-02-10T03:06:48;101202.28;;;-8.93;80.68
60089;BME280;45961;53.574;55.878;2023-02-10T03:07:49;101202.44;;;-8.92;80.78
60089;BME280;45961;53.574;55.878;2023-02-10T03:08:51;101211.38;;;-9.03;80.80
60089;BME280;45961;53.574;55.878;2023-02-10T03:09:52;101204.47;;;-8.97;80.85
60089;BME280;45961;53.574;55.878;2023-02-10T03:10:53;101202.94;;;-9.12;80.74
60089;BME280;45961;53.574;55.878;2023-02-10T03:11:54;101211.91;;;-9.14;80.75
60089;BME280;45961;53.574;55.878;2023-02-10T03:12:55;101208.56;;;-9.06;80.79
60089;BME280;45961;53.574;55.878;2023-02-10T03:13:56;101213.25;;;-9.09;80.92
60089;BME280;45961;53.574;55.878;2023-02-10T03:14:57;101208.38;;;-9.16;80.90
60089;BME280;45961;53.574;55.878;2023-02-10T03:15:58;101203.75;;;-9.20;80.92
60089;BME280;45961;53.574;55.878;2023-02-10T03:17:00;101200.34;;;-9.21;80.95
60089;BME280;45961;53.574;55.878;2023-02-10T03:18:01;101184.00;;;-9.17;80.95
60089;BME280;45961;53.574;55.878;2023-02-10T03:19:02;101202.50;;;-9.08;80.96
60089;BME280;45961;53.574;55.878;2023-02-10T03:20:03;101201.63;;;-9.08;80.89
60089;BME280;45961;53.574;55.878;2023-02-10T03:21:04;101197.06;;;-9.04;80.99
60089;BME280;45961;53.574;55.878;2023-02-10T03:22:05;101193.97;;;-9.01;80.84
60089;BME280;45961;53.574;55.878;2023-02-10T03:23:06;101201.88;;;-9.14;80.83
60089;BME280;45961;53.574;55.878;2023-02-10T03:24:08;101198.78;;;-9.11;80.74
60089;BME280;45961;53.574;55.878;2023-02-10T03:25:09;101197.16;;;-9.11;80.91
60089;BME280;45961;53.574;55.878;2023-02-10T03:26:10;101187.00;;;-9.12;80.95
60089;BME280;45961;53.574;55.878;2023-02-10T03:27:11;101187.59;;;-9.06;81.01
60089;BME280;45961;53.574;55.878;2023-02-10T03:28:13;101173.88;;;-9.10;81.14
60089;BME280;45961;53.574;55.878;2023-02-10T03:29:15;101180.22;;;-9.05;80.86
60089;BME280;45961;53.574;55.878;2023-02-10T03:30:16;101188.75;;;-9.11;80.89
60089;BME280;45961;53.574;55.878;2023-02-10T03:31:17;101180.88;;;-9.23;80.91
60089;BME280;45961;53.574;55.878;2023-02-10T03:32:19;101186.81;;;-9.14;81.02
60089;BME280;45961;53.574;55.878;2023-02-10T03:33:20;101182.44;;;-9.08;81.05
60089;BME280;45961;53.574;55.878;2023-02-10T03:34:21;101179.31;;;-9.14;81.04
60089;BME280;45961;53.574;55.878;2023-02-10T03:35:24;101191.41;;;-9.10;80.94
60089;BME280;45961;53.574;55.878;2023-02-10T03:36:26;101185.06;;;-9.15;80.84
60089;BME280;45961;53.574;55.878;2023-02-10T03:37:26;101176.44;;;-9.26;80.68
60089;BME280;45961;53.574;55.878;2023-02-10T03:38:28;101180.28;;;-9.45;80.71
60089;BME280;45961;53.574;55.878;2023-02-10T03:39:28;101186.91;;;-9.46;80.86
60089;BME280;45961;53.574;55.878;2023-02-10T03:40:29;101191.78;;;-9.23;80.83
60089;BME280;45961;53.574;55.878;2023-02-10T03:41:30;101187.16;;;-9.35;80.74
60089;BME280;45961;53.574;55.878;2023-02-10T03:42:31;101182.88;;;-9.36;80.80
60089;BME280;45961;53.574;55.878;2023-02-10T03:43:32;101175.97;;;-9.30;80.85
60089;BME280;45961;53.574;55.878;2023-02-10T03:44:33;101181.38;;;-9.34;80.70
60089;BME280;45961;53.574;55.878;2023-02-10T03:45:34;101178.47;;;-9.30;80.62
60089;BME280;45961;53.574;55.878;2023-02-10T03:46:35;101186.72;;;-9.31;80.59
60089;BME280;45961;53.574;55.878;2023-02-10T03:47:37;101183.56;;;-9.37;80.47
60089;BME280;45961;53.574;55.878;2023-02-10T03:48:38;101186.50;;;-9.41;80.55
60089;BME280;45961;53.574;55.878;2023-02-10T03:49:39;101185.78;;;-9.40;80.47
60089;BME280;45961;53.574;55.878;2023-02-10T03:50:40;101185.66;;;-9.33;80.46
60089;BME280;45961;53.574;55.878;2023-02-10T03:51:41;101185.66;;;-9.33;80.39
60089;BME280;45961;53.574;55.878;2023-02-10T03:52:42;101178.38;;;-9.23;80.49
60089;BME280;45961;53.574;55.878;2023-02-10T03:53:43;101189.22;;;-9.31;80.29
60089;BME280;45961;53.574;55.878;2023-02-10T03:54:44;101179.38;;;-9.46;80.13
60089;BME280;45961;53.574;55.878;2023-02-10T03:55:45;101176.66;;;-9.40;80.35
60089;BME280;45961;53.574;55.878;2023-02-10T03:56:46;101182.38;;;-9.41;80.42
60089;BME280;45961;53.574;55.878;2023-02-10T03:57:47;101191.50;;;-9.41;80.41
60089;BME280;45961;53.574;55.878;2023-02-10T03:58:48;101180.28;;;-9.45;80.40
60089;BME280;45961;53.574;55.878;2023-02-10T03:59:49;101178.78;;;-9.52;80.39
60089;BME280;45961;53.574;55.878;2023-02-10T04:00:50;101184.41;;;-9.46;80.35
60089;BME280;45961;53.574;55.878;2023-02-10T04:01:51;101181.38;;;-9.59;80.36
60089;BME280;45961;53.574;55.878;2023-02-10T04:02:55;101186.47;;;-9.66;80.50
60089;BME280;45961;53.574;55.878;2023-02-10T04:03:57;101180.09;;;-9.71;80.67
60089;BME280;45961;53.574;55.878;2023-02-10T04:05:18;101182.09;;;-9.60;81.01
60089;BME280;45961;53.574;55.878;2023-02-10T04:06:19;101185.56;;;-9.51;80.93
60089;BME280;45961;53.574;55.878;2023-02-10T04:07:20;101183.13;;;-9.58;81.04
60089;BME280;45961;53.574;55.878;2023-02-10T04:08:21;101176.41;;;-9.50;81.03
60089;BME280;45961;53.574;55.878;2023-02-10T04:09:22;101174.69;;;-9.42;81.03
60089;BME280;45961;53.574;55.878;2023-02-10T04:10:23;101171.66;;;-9.56;80.81
60089;BME280;45961;53.574;55.878;2023-02-10T04:11:24;101171.34;;;-9.59;80.85
60089;BME280;45961;53.574;55.878;2023-02-10T04:12:25;101161.19;;;-9.60;80.96
60089;BME280;45961;53.574;55.878;2023-02-10T04:13:26;101174.34;;;-9.70;81.10
60089;BME280;45961;53.574;55.878;2023-02-10T04:14:27;101171.84;;;-9.70;81.29
60089;BME280;45961;53.574;55.878;2023-02-10T04:15:28;101182.88;;;-9.77;81.63
60089;BME280;45961;53.574;55.878;2023-02-10T04:16:29;101183.09;;;-9.82;81.64
60089;BME280;45961;53.574;55.878;2023-02-10T04:17:30;101181.31;;;-9.67;81.78
60089;BME280;45961;53.574;55.878;2023-02-10T04:18:32;101179.59;;;-9.60;81.72
60089;BME280;45961;53.574;55.878;2023-02-10T04:19:33;101176.19;;;-9.45;81.51
60089;BME280;45961;53.574;55.878;2023-02-10T04:20:35;101174.38;;;-9.46;81.31
60089;BME280;45961;53.574;55.878;2023-02-10T04:21:36;101168.66;;;-9.45;81.15
60089;BME280;45961;53.574;55.878;2023-02-10T04:22:37;101170.78;;;-9.56;80.91
60089;BME280;45961;53.574;55.878;2023-02-10T04:23:38;101157.63;;;-9.38;81.04
60089;BME280;45961;53.574;55.878;2023-02-10T04:24:39;101163.22;;;-9.40;80.87
60089;BME280;45961;53.574;55.878;2023-02-10T04:25:40;101166.78;;;-9.38;80.80
60089;BME280;45961;53.574;55.878;2023-02-10T04:26:41;101170.75;;;-9.40;80.77
60089;BME280;45961;53.574;55.878;2023-02-10T04:27:42;101159.72;;;-9.34;80.66
60089;BME280;45961;53.574;55.878;2023-02-10T04:28:43;101162.88;;;-9.28;80.68
60089;BME280;45961;53.574;55.878;2023-02-10T04:29:44;101166.63;;;-9.15;80.56
60089;BME280;45961;53.574;55.878;2023-02-10T04:30:45;101157.56;;;-9.22;80.40
60089;BME280;45961;53.574;55.878;2023-02-10T04:31:46;101166.88;;;-9.21;80.17
60089;BME280;45961;53.574;55.878;2023-02-10T04:32:47;101172.63;;;-9.22;80.18
60089;BME280;45961;53.574;55.878;2023-02-10T04:33:48;101167.03;;;-9.20;80.13
60089;BME280;45961;53.574;55.878;2023-02-10T04:34:49;101175.63;;;-9.33;80.13
60089;BME280;45961;53.574;55.878;2023-02-10T04:35:51;101169.38;;;-9.21;80.17
60089;BME280;45961;53.574;55.878;2023-02-10T04:36:52;101162.41;;;-9.32;80.19
60089;BME280;45961;53.574;55.878;2023-02-10T04:37:53;101155.47;;;-9.26;80.20
60089;BME280;45961;53.574;55.878;2023-02-10T04:38:54;101166.25;;;-9.27;80.04
60089;BME280;45961;53.574;55.878;2023-02-10T04:39:55;101176.28;;;-9.27;80.04
60089;BME280;45961;53.574;55.878;2023-02-10T04:40:56;101174.66;;;-9.27;80.05
60089;BME280;45961;53.574;55.878;2023-02-10T04:41:57;101168.50;;;-9.22;80.14
60089;BME280;45961;53.574;55.878;2023-02-10T04:42:58;101161.44;;;-9.17;80.07
60089;BME280;45961;53.574;55.878;2023-02-10T04:43:59;101164.69;;;-9.18;80.08
60089;BME280;45961;53.574;55.878;2023-02-10T04:45:00;101166.16;;;-9.20;79.95
60089;BME280;45961;53.574;55.878;2023-02-10T04:46:01;101167.22;;;-9.34;79.97
60089;BME280;45961;53.574;55.878;2023-02-10T04:47:05;101172.53;;;-9.15;80.31
60089;BME280;45961;53.574;55.878;2023-02-10T04:48:07;101160.13;;;-9.13;80.12
60089;BME280;45961;53.574;55.878;2023-02-10T04:49:08;101172.84;;;-9.12;79.98
60089;BME280;45961;53.574;55.878;2023-02-10T04:50:09;101168.69;;;-9.11;80.02
60089;BME280;45961;53.574;55.878;2023-02-10T04:51:11;101167.81;;;-9.12;80.15
60089;BME280;45961;53.574;55.878;2023-02-10T04:52:13;101161.66;;;-9.07;80.08
60089;BME280;45961;53.574;55.878;2023-02-10T04:53:14;101164.16;;;-9.07;80.09
60089;BME280;45961;53.574;55.878;2023-02-10T04:54:15;101174.50;;;-9.04;80.33
60089;BME280;45961;53.574;55.878;2023-02-10T04:55:16;101171.16;;;-8.96;80.12
60089;BME280;45961;53.574;55.878;2023-02-10T04:56:17;101162.25;;;-9.01;80.02
60089;BME280;45961;53.574;55.878;2023-02-10T04:57:18;101168.84;;;-9.10;80.01
60089;BME280;45961;53.574;55.878;2023-02-10T04:58:19;101167.09;;;-9.11;80.11
60089;BME280;45961;53.574;55.878;2023-02-10T04:59:20;101171.41;;;-9.01;80.09
60089;BME280;45961;53.574;55.878;2023-02-10T05:00:21;101171.41;;;-9.01;80.02
60089;BME280;45961;53.574;55.878;2023-02-10T05:01:22;101172.44;;;-8.99;80.00
60089;BME280;45961;53.574;55.878;2023-02-10T05:02:23;101168.19;;;-9.00;79.94
60089;BME280;45961;53.574;55.878;2023-02-10T05:03:24;101165.59;;;-9.09;79.83
60089;BME280;45961;53.574;55.878;2023-02-10T05:04:25;101168.28;;;-9.07;79.93
60089;BME280;45961;53.574;55.878;2023-02-10T05:05:26;101173.88;;;-9.10;79.98
60089;BME280;45961;53.574;55.878;2023-02-10T05:06:28;101173.81;;;-9.18;80.01
60089;BME280;45961;53.574;55.878;2023-02-10T05:07:29;101185.09;;;-9.31;80.21
60089;BME280;45961;53.574;55.878;2023-02-10T05:08:30;101176.69;;;-9.07;80.38
60089;BME280;45961;53.574;55.878;2023-02-10T05:09:31;101170.81;;;-8.99;80.23
60089;BME280;45961;53.574;55.878;2023-02-10T05:10:32;101173.78;;;-8.94;80.25
60089;BME280;45961;53.574;55.878;2023-02-10T05:11:32;101170.59;;;-8.84;80.17
60089;BME280;45961;53.574;55.878;2023-02-10T05:12:33;101159.53;;;-8.86;80.00
60089;BME280;45961;53.574;55.878;2023-02-10T05:13:35;101166.59;;;-8.91;79.97
60089;BME280;45961;53.574;55.878;2023-02-10T05:14:37;101170.31;;;-8.87;79.91
60089;BME280;45961;53.574;55.878;2023-02-10T05:15:38;101176.22;;;-8.78;79.94
60089;BME280;45961;53.574;55.878;2023-02-10T05:16:39;101176.22;;;-8.78;79.76
60089;BME280;45961;53.574;55.878;2023-02-10T05:17:40;101176.03;;;-8.88;79.71
60089;BME280;45961;53.574;55.878;2023-02-10T05:18:41;101174.78;;;-8.76;79.69
60089;BME280;45961;53.574;55.878;2023-02-10T05:19:42;101168.69;;;-8.78;79.72
60089;BME280;45961;53.574;55.878;2023-02-10T05:20:43;101172.69;;;-8.80;79.57
60089;BME280;45961;53.574;55.878;2023-02-10T05:21:43;101170.31;;;-8.87;79.77
60089;BME280;45961;53.574;55.878;2023-02-10T05:22:44;101170.94;;;-8.73;79.71
60089;BME280;45961;53.574;55.878;2023-02-10T05:23:45;101168.00;;;-8.68;79.86
60089;BME280;45961;53.574;55.878;2023-02-10T05:24:46;101164.47;;;-8.71;79.66
60089;BME280;45961;53.574;55.878;2023-02-10T05:25:47;101170.38;;;-8.61;79.59
60089;BME280;45961;53.574;55.878;2023-02-10T05:26:48;101169.63;;;-8.60;79.33
60089;BME280;45961;53.574;55.878;2023-02-10T05:27:49;101160.94;;;-8.64;79.19
60089;BME280;45961;53.574;55.878;2023-02-10T05:28:50;101164.38;;;-8.55;79.30
60089;BME280;45961;53.574;55.878;2023-02-10T05:29:51;101159.78;;;-8.59;79.36
60089;BME280;45961;53.574;55.878;2023-02-10T05:30:53;101160.69;;;-8.50;79.04
60089;BME280;45961;53.574;55.878;2023-02-10T05:31:54;101169.22;;;-8.56;79.21
60089;BME280;45961;53.574;55.878;2023-02-10T05:32:55;101159.66;;;-8.52;79.19
60089;BME280;45961;53.574;55.878;2023-02-10T05:33:56;101147.88;;;-8.44;79.17
60089;BME280;45961;53.574;55.878;2023-02-10T05:34:57;101157.16;;;-8.43;79.23
60089;BME280;45961;53.574;55.878;2023-02-10T05:35:58;101155.53;;;-8.42;79.10
60089;BME280;45961;53.574;55.878;2023-02-10T05:36:59;101153.16;;;-8.41;79.03
60089;BME280;45961;53.574;55.878;2023-02-10T05:38:00;101144.19;;;-8.39;79.10
60089;BME280;45961;53.574;55.878;2023-02-10T05:39:04;101149.34;;;-8.37;79.20
60089;BME280;45961;53.574;55.878;2023-02-10T05:40:23;101151.25;;;-8.43;79.00
60089;BME280;45961;53.574;55.878;2023-02-10T05:41:24;101142.09;;;-8.43;79.15
60089;BME280;45961;53.574;55.878;2023-02-10T05:42:25;101148.88;;;-8.33;78.95
60089;BME280;45961;53.574;55.878;2023-02-10T05:43:26;101149.75;;;-8.24;78.90
60089;BME280;45961;53.574;55.878;2023-02-10T05:44:29;101146.53;;;-8.23;78.81